Time;durP1;ratioP1;P1;durP2;ratioP2;P2;SDS_P1;SDS_P2;PMS_P1;PMS_P2;Temp;Humidity;BMP_temperature;BMP_pressure;BME280_temperature;BME280_humidity;BME280_pressure;Samples;Min_cycle;Max_cycle;Signal;HPM_P1;HPM_P2
2022/01/02 00:01:45;;;;;;;118.10;107.40;;;12.70;99.60;;;;;;5012818;28;20058;-80
2022/01/02 00:04:16;;;;;;;119.75;108.75;;;12.60;99.60;;;;;;4996317;28;20069;-80
2022/01/02 00:06:47;;;;;;;119.55;108.50;;;12.60;99.70;;;;;;4996483;28;20485;-80
2022/01/02 00:09:24;;;;;;;118.22;107.38;;;12.70;99.80;;;;;;4995738;28;20616;-80
2022/01/02 00:11:55;;;;;;;116.38;105.88;;;12.70;99.80;;;;;;4995389;28;21008;-80
2022/01/02 00:14:25;;;;;;;116.68;105.93;;;12.60;99.70;;;;;;5013845;28;20132;-80
2022/01/02 00:16:52;;;;;;;115.57;105.18;;;12.60;99.80;;;;;;4995513;28;20053;-80
2022/01/02 00:19:28;;;;;;;116.57;106.15;;;12.60;99.90;;;;;;4979200;28;20046;-81
2022/01/02 00:21:59;;;;;;;116.93;106.40;;;12.60;99.90;;;;;;4994882;28;20101;-81
2022/01/02 00:24:29;;;;;;;116.75;106.05;;;12.50;99.90;;;;;;4995838;28;20054;-81
2022/01/02 00:26:57;;;;;;;117.45;106.82;;;12.50;99.90;;;;;;4976064;28;20066;-81
2022/01/02 00:29:25;;;;;;;117.05;106.25;;;12.60;99.90;;;;;;4974240;28;20051;-80
2022/01/02 00:31:53;;;;;;;117.90;107.13;;;12.60;99.90;;;;;;4976521;28;20098;-81
2022/01/02 00:34:21;;;;;;;118.32;107.63;;;12.60;99.90;;;;;;4959583;28;20086;-80
2022/01/02 00:36:48;;;;;;;117.18;106.30;;;12.60;99.90;;;;;;4992872;28;20141;-80
2022/01/02 00:39:14;;;;;;;115.93;105.57;;;12.50;99.90;;;;;;4979476;28;20066;-80
2022/01/02 00:41:48;;;;;;;118.05;106.95;;;12.50;99.90;;;;;;4975672;28;20058;-80
2022/01/02 00:44:32;;;;;;;119.22;108.18;;;12.60;99.90;;;;;;4979099;28;20050;-81
2022/01/02 00:47:08;;;;;;;118.50;107.80;;;12.50;99.90;;;;;;4982947;28;20093;-80
2022/01/02 00:49:39;;;;;;;118.88;107.78;;;12.50;99.90;;;;;;4974069;28;20038;-80
2022/01/02 00:52:12;;;;;;;118.40;107.35;;;12.50;99.90;;;;;;4995571;28;20060;-80
2022/01/02 00:54:43;;;;;;;119.53;108.53;;;12.50;99.90;;;;;;5007789;28;20062;-81
2022/01/02 00:57:15;;;;;;;119.82;108.80;;;12.50;99.90;;;;;;4971984;28;20488;-81
2022/01/02 00:59:48;;;;;;;119.22;108.13;;;12.50;99.90;;;;;;5013232;28;20123;-81
2022/01/02 01:02:19;;;;;;;118.85;107.85;;;12.50;99.90;;;;;;4978605;28;20050;-80
2022/01/02 01:04:49;;;;;;;118.25;107.40;;;12.50;99.90;;;;;;4975668;28;20059;-80
2022/01/02 01:07:19;;;;;;;117.38;106.50;;;12.50;99.90;;;;;;4959689;28;20595;-81
2022/01/02 01:09:48;;;;;;;118.32;107.57;;;12.40;99.90;;;;;;4972209;28;20050;-80
2022/01/02 01:12:18;;;;;;;119.80;109.05;;;12.40;99.90;;;;;;4988067;28;20546;-80
2022/01/02 01:14:46;;;;;;;120.30;109.32;;;12.40;99.90;;;;;;4995109;28;20050;-81
2022/01/02 01:17:16;;;;;;;120.15;109.03;;;12.40;99.90;;;;;;4975483;28;20190;-80
2022/01/02 01:19:43;;;;;;;119.93;108.63;;;12.40;99.90;;;;;;4972172;28;20571;-81
2022/01/02 01:22:10;;;;;;;119.88;108.70;;;12.40;99.90;;;;;;4975441;28;20051;-81
2022/01/02 01:24:37;;;;;;;118.50;107.72;;;12.40;99.90;;;;;;4975538;28;20129;-80
2022/01/02 01:27:06;;;;;;;119.65;108.53;;;12.40;99.90;;;;;;4974326;28;20129;-80
2022/01/02 01:29:35;;;;;;;117.57;106.57;;;12.40;99.90;;;;;;4989287;28;20505;-81
2022/01/02 01:32:05;;;;;;;118.57;107.40;;;12.40;99.90;;;;;;5012533;28;20057;-81
2022/01/02 01:34:32;;;;;;;118.63;107.82;;;12.40;99.90;;;;;;4978627;28;20046;-81
2022/01/02 01:36:59;;;;;;;120.03;108.82;;;12.40;99.90;;;;;;4974911;28;20054;-81
2022/01/02 01:39:27;;;;;;;121.40;110.10;;;12.40;99.90;;;;;;4970233;28;20059;-81
2022/01/02 01:41:56;;;;;;;121.20;109.60;;;12.40;99.90;;;;;;4972462;28;20061;-81
2022/01/02 01:44:41;;;;;;;120.80;109.10;;;12.40;99.90;;;;;;4978509;28;20042;-81
2022/01/02 01:47:11;;;;;;;121.03;109.65;;;12.30;99.90;;;;;;4995402;28;20580;-81
2022/01/02 01:49:38;;;;;;;119.80;108.47;;;12.30;99.90;;;;;;4978423;28;20039;-81
2022/01/02 01:52:05;;;;;;;119.60;108.35;;;12.30;99.90;;;;;;4994820;28;20441;-81
2022/01/02 01:54:32;;;;;;;119.53;108.32;;;12.30;99.90;;;;;;4978481;28;20058;-81
2022/01/02 01:56:59;;;;;;;120.00;108.65;;;12.30;99.90;;;;;;4987812;28;20045;-82
2022/01/02 01:59:30;;;;;;;118.93;107.93;;;12.30;99.90;;;;;;4981776;28;20066;-81
2022/01/02 02:01:58;;;;;;;118.55;107.35;;;12.30;99.90;;;;;;4977953;28;20152;-81
2022/01/02 02:04:28;;;;;;;121.25;109.70;;;12.40;99.90;;;;;;4962765;28;20047;-81
2022/01/02 02:06:57;;;;;;;119.78;108.75;;;12.40;99.90;;;;;;4981583;28;20050;-81
2022/01/02 02:09:31;;;;;;;118.25;107.20;;;12.30;99.90;;;;;;4981610;28;20049;-80
2022/01/02 02:12:00;;;;;;;117.60;106.53;;;12.30;99.90;;;;;;4981142;28;20052;-81
2022/01/02 02:14:30;;;;;;;118.45;107.47;;;12.30;99.90;;;;;;4978393;28;20054;-81
2022/01/02 02:16:59;;;;;;;118.95;107.65;;;12.40;99.90;;;;;;4978391;28;20046;-81
2022/01/02 02:19:27;;;;;;;119.03;108.10;;;12.30;99.90;;;;;;4985027;28;20513;-80
2022/01/02 02:21:55;;;;;;;119.13;107.82;;;12.30;99.90;;;;;;4981257;28;20472;-80
2022/01/02 02:24:22;;;;;;;118.88;107.78;;;12.30;99.90;;;;;;4997375;28;20046;-81
2022/01/02 02:26:49;;;;;;;120.10;108.75;;;12.30;99.90;;;;;;4999071;28;20057;-80
2022/01/02 02:29:16;;;;;;;118.70;107.43;;;12.30;99.90;;;;;;4996008;28;20129;-81
2022/01/02 02:31:43;;;;;;;118.32;107.13;;;12.30;99.90;;;;;;4964653;28;20096;-81
2022/01/02 02:34:10;;;;;;;118.68;107.82;;;12.30;99.90;;;;;;4996557;28;20051;-81
2022/01/02 02:36:37;;;;;;;121.80;110.05;;;12.30;99.90;;;;;;4978039;28;20065;-81
2022/01/02 02:39:06;;;;;;;117.85;106.72;;;12.30;99.90;;;;;;4978310;28;20047;-81
2022/01/02 02:41:37;;;;;;;118.85;107.80;;;12.30;99.90;;;;;;4981207;28;20056;-81
2022/01/02 02:44:10;;;;;;;118.10;107.20;;;12.20;99.90;;;;;;4980718;28;20054;-81
2022/01/02 02:49:21;;;;;;;118.97;107.95;;;12.20;99.90;;;;;;4979806;28;20280;-81
2022/01/02 02:51:53;;;;;;;118.57;107.07;;;12.20;99.90;;;;;;4977203;28;20057;-81
2022/01/02 02:54:32;;;;;;;117.60;106.55;;;12.20;99.90;;;;;;4974243;28;20083;-80
2022/01/02 02:57:00;;;;;;;119.05;108.22;;;12.20;99.90;;;;;;4991983;28;20043;-81
2022/01/02 02:59:32;;;;;;;118.28;107.43;;;12.20;99.90;;;;;;4993085;28;20042;-81
2022/01/02 03:02:00;;;;;;;120.00;108.25;;;12.20;99.90;;;;;;4979395;28;20055;-80
2022/01/02 03:04:29;;;;;;;117.28;106.53;;;12.20;99.90;;;;;;4981122;28;20050;-80
2022/01/02 03:06:56;;;;;;;120.82;109.55;;;12.20;99.90;;;;;;4980628;28;20471;-80
2022/01/02 03:09:37;;;;;;;120.03;108.75;;;12.20;99.90;;;;;;4980657;28;20057;-81
2022/01/02 03:12:06;;;;;;;119.38;107.80;;;12.20;99.90;;;;;;4967915;28;20501;-80
2022/01/02 03:14:36;;;;;;;118.55;106.93;;;12.20;99.90;;;;;;4961878;28;20247;-81
2022/01/02 03:17:04;;;;;;;119.63;108.07;;;12.20;99.90;;;;;;4978623;28;20062;-81
2022/01/02 03:19:31;;;;;;;118.28;107.07;;;12.20;99.90;;;;;;4980743;28;20130;-81
2022/01/02 03:21:59;;;;;;;120.32;108.97;;;12.20;99.90;;;;;;4979773;28;20046;-81
2022/01/02 03:24:26;;;;;;;120.30;108.55;;;12.20;99.90;;;;;;4978044;28;20055;-81
2022/01/02 03:26:53;;;;;;;119.72;108.55;;;12.20;99.90;;;;;;4980230;28;20086;-81
2022/01/02 03:29:22;;;;;;;117.93;106.35;;;12.20;99.90;;;;;;4983868;28;20050;-81
2022/01/02 03:31:50;;;;;;;116.75;105.93;;;12.20;99.90;;;;;;4997117;28;20113;-81
2022/01/02 03:34:17;;;;;;;117.40;106.40;;;12.20;99.90;;;;;;4980668;28;20050;-81
2022/01/02 03:36:44;;;;;;;117.57;106.60;;;12.20;99.90;;;;;;4996430;28;20087;-81
2022/01/02 03:39:11;;;;;;;118.70;107.43;;;12.20;99.90;;;;;;4980177;28;20054;-80
2022/01/02 03:41:38;;;;;;;117.90;106.78;;;12.20;99.90;;;;;;4979853;28;20109;-81
2022/01/02 03:44:05;;;;;;;117.57;106.15;;;12.20;99.90;;;;;;4976739;28;20058;-81
2022/01/02 03:46:34;;;;;;;118.65;107.70;;;12.20;99.90;;;;;;4965318;28;20062;-81
2022/01/02 03:49:01;;;;;;;119.40;108.30;;;12.20;99.90;;;;;;4996350;28;20055;-80
2022/01/02 03:51:28;;;;;;;119.13;107.97;;;12.20;99.90;;;;;;4980252;28;20050;-81
2022/01/02 03:53:55;;;;;;;117.70;106.63;;;12.20;99.90;;;;;;4976273;28;20133;-81
2022/01/02 03:56:25;;;;;;;117.18;106.15;;;12.20;99.90;;;;;;4968185;28;20078;-81
2022/01/02 03:58:52;;;;;;;115.85;104.78;;;12.20;99.90;;;;;;4979464;28;20054;-81
2022/01/02 04:01:19;;;;;;;117.97;106.53;;;12.30;99.90;;;;;;4996055;28;20082;-81
2022/01/02 04:03:47;;;;;;;117.63;106.30;;;12.20;99.90;;;;;;4969608;28;20077;-81
2022/01/02 04:06:14;;;;;;;118.60;106.88;;;12.30;99.90;;;;;;4980057;28;20054;-80
2022/01/02 04:08:42;;;;;;;115.88;104.82;;;12.30;99.90;;;;;;4995447;28;20815;-81
2022/01/02 04:11:09;;;;;;;116.78;105.32;;;12.30;99.90;;;;;;4995382;28;20050;-80
2022/01/02 04:13:36;;;;;;;117.53;106.13;;;12.30;99.90;;;;;;4995653;28;20050;-81
2022/01/02 04:16:03;;;;;;;117.53;106.03;;;12.40;99.90;;;;;;4995894;28;20165;-80
2022/01/02 04:18:31;;;;;;;116.88;105.85;;;12.30;99.90;;;;;;4966126;28;20047;-81
2022/01/02 04:20:59;;;;;;;115.82;104.65;;;12.40;99.90;;;;;;4960351;28;20137;-81
2022/01/02 04:23:26;;;;;;;116.63;105.50;;;12.40;99.90;;;;;;4993017;28;20101;-81
2022/01/02 04:25:53;;;;;;;118.88;107.25;;;12.40;99.90;;;;;;4979979;28;20055;-81
2022/01/02 04:28:20;;;;;;;117.75;106.55;;;12.40;99.90;;;;;;4979389;28;20517;-81
2022/01/02 04:30:47;;;;;;;118.97;107.80;;;12.40;99.90;;;;;;4979195;28;20501;-81
2022/01/02 04:33:14;;;;;;;117.63;106.32;;;12.50;99.90;;;;;;4978713;28;20535;-81
2022/01/02 04:35:41;;;;;;;118.93;107.40;;;12.50;99.90;;;;;;4994878;28;20078;-81
2022/01/02 04:38:10;;;;;;;119.07;107.35;;;12.50;99.90;;;;;;4975591;28;20050;-81
2022/01/02 04:40:37;;;;;;;118.53;106.90;;;12.50;99.90;;;;;;4961087;28;20055;-80
2022/01/02 04:43:06;;;;;;;116.22;104.95;;;12.50;99.90;;;;;;4979315;28;20057;-81
2022/01/02 04:45:34;;;;;;;118.38;106.47;;;12.50;99.90;;;;;;4979427;28;20069;-81
2022/01/02 04:48:01;;;;;;;116.78;105.85;;;12.50;99.90;;;;;;4995612;28;20050;-81
2022/01/02 04:50:29;;;;;;;117.40;105.90;;;12.50;99.90;;;;;;4995055;28;20058;-81
2022/01/02 04:52:57;;;;;;;118.28;106.65;;;12.50;99.90;;;;;;4995641;28;20046;-81
2022/01/02 04:55:25;;;;;;;117.22;106.13;;;12.60;99.90;;;;;;4978820;28;20062;-81
2022/01/02 04:57:52;;;;;;;116.43;105.22;;;12.60;99.90;;;;;;4982863;28;20074;-81
2022/01/02 05:00:19;;;;;;;116.00;104.80;;;12.60;99.90;;;;;;4981232;28;20062;-81
2022/01/02 05:02:49;;;;;;;116.00;104.45;;;12.60;99.90;;;;;;4979916;28;20497;-81
2022/01/02 05:05:17;;;;;;;116.90;105.38;;;12.60;99.90;;;;;;4961795;28;20169;-81
2022/01/02 05:07:44;;;;;;;117.57;106.18;;;12.60;99.90;;;;;;4984452;28;20062;-81
2022/01/02 05:10:11;;;;;;;115.50;104.40;;;12.60;99.90;;;;;;4978888;28;20057;-81
2022/01/02 05:12:39;;;;;;;117.32;106.13;;;12.60;99.90;;;;;;4995148;28;20809;-81
2022/01/02 05:15:07;;;;;;;116.55;105.38;;;12.60;99.90;;;;;;4995040;28;20054;-81
2022/01/02 05:17:34;;;;;;;116.22;105.15;;;12.60;99.90;;;;;;4995072;28;20047;-81
2022/01/02 05:20:01;;;;;;;116.60;105.30;;;12.60;99.90;;;;;;4975909;28;20051;-81
2022/01/02 05:22:30;;;;;;;116.90;105.50;;;12.60;99.90;;;;;;4975340;28;20057;-81
2022/01/02 05:24:58;;;;;;;114.70;103.78;;;12.70;99.90;;;;;;4979316;28;20073;-81
2022/01/02 05:27:25;;;;;;;115.45;104.45;;;12.70;99.90;;;;;;4978432;28;20050;-81
2022/01/02 05:29:55;;;;;;;116.35;105.30;;;12.70;99.90;;;;;;4976330;28;20055;-81
2022/01/02 05:32:22;;;;;;;115.03;103.93;;;12.70;99.90;;;;;;4994559;28;20128;-80
2022/01/02 05:34:49;;;;;;;115.57;104.78;;;12.70;99.90;;;;;;4988334;28;20483;-80
2022/01/02 05:37:17;;;;;;;116.18;105.18;;;12.70;99.90;;;;;;4994581;28;20089;-81
2022/01/02 05:39:44;;;;;;;116.20;104.78;;;12.70;99.90;;;;;;4975359;28;20146;-81
2022/01/02 05:42:11;;;;;;;115.38;104.32;;;12.70;99.90;;;;;;4978504;28;20128;-81
2022/01/02 05:44:38;;;;;;;114.18;103.55;;;12.70;99.90;;;;;;4978614;28;20061;-81
2022/01/02 05:47:06;;;;;;;115.82;104.97;;;12.70;99.90;;;;;;4994142;28;20053;-81
2022/01/02 05:49:33;;;;;;;113.97;103.07;;;12.80;99.90;;;;;;5012619;28;20512;-81
2022/01/02 05:52:02;;;;;;;114.53;103.53;;;12.80;99.90;;;;;;4978585;28;20085;-81
2022/01/02 05:54:29;;;;;;;113.40;102.43;;;12.80;99.90;;;;;;4978673;28;20516;-81
2022/01/02 05:56:56;;;;;;;113.25;102.70;;;12.90;99.90;;;;;;4977135;28;20050;-81
2022/01/02 05:59:24;;;;;;;114.40;103.07;;;12.90;99.90;;;;;;4969793;28;20098;-81
2022/01/02 06:01:53;;;;;;;114.78;104.03;;;12.90;99.90;;;;;;4968750;28;20087;-81
2022/01/02 06:04:22;;;;;;;115.53;103.97;;;12.90;99.90;;;;;;4974654;28;20488;-81
2022/01/02 06:06:49;;;;;;;115.63;104.40;;;13.00;99.90;;;;;;4999136;28;20054;-81
2022/01/02 06:09:18;;;;;;;113.43;102.72;;;13.00;99.90;;;;;;5015245;28;20050;-80
2022/01/02 06:11:45;;;;;;;112.88;102.47;;;13.00;99.90;;;;;;4995099;28;20137;-80
2022/01/02 06:14:12;;;;;;;115.93;104.63;;;13.10;99.90;;;;;;4979702;28;20054;-81
2022/01/02 06:16:39;;;;;;;115.65;104.40;;;13.00;99.90;;;;;;4979198;28;20050;-81
2022/01/02 06:19:06;;;;;;;116.07;104.63;;;13.10;99.90;;;;;;4979217;28;20672;-81
2022/01/02 06:21:36;;;;;;;114.45;103.82;;;13.10;99.90;;;;;;4979214;28;20054;-81
2022/01/02 06:24:03;;;;;;;115.15;103.97;;;13.20;99.90;;;;;;4979293;28;20054;-81
2022/01/02 06:26:30;;;;;;;114.97;104.43;;;13.20;99.90;;;;;;4979253;28;20125;-81
2022/01/02 06:29:02;;;;;;;114.68;103.97;;;13.20;99.90;;;;;;4979205;28;20050;-81
2022/01/02 06:31:30;;;;;;;115.05;104.10;;;13.20;99.90;;;;;;4979271;28;20532;-81
2022/01/02 06:33:57;;;;;;;114.85;103.82;;;13.30;99.90;;;;;;4981462;28;20043;-81
2022/01/02 06:36:25;;;;;;;113.40;103.00;;;13.20;99.90;;;;;;4992937;28;20509;-81
2022/01/02 06:38:53;;;;;;;113.78;102.78;;;13.20;99.90;;;;;;5001728;28;20435;-81
2022/01/02 06:41:21;;;;;;;113.97;103.03;;;13.20;99.90;;;;;;5001829;28;20137;-81
2022/01/02 06:43:52;;;;;;;113.80;103.22;;;13.20;99.90;;;;;;5001966;28;20083;-81
2022/01/02 06:46:20;;;;;;;114.32;103.53;;;13.20;99.90;;;;;;5001928;28;20058;-81
2022/01/02 06:48:47;;;;;;;114.40;103.85;;;13.20;99.90;;;;;;5017979;28;20574;-81
2022/01/02 06:51:14;;;;;;;113.63;103.20;;;13.20;99.90;;;;;;5001994;28;20157;-81
2022/01/02 06:53:42;;;;;;;116.22;105.15;;;13.20;99.90;;;;;;5001238;28;20057;-81
2022/01/02 06:56:11;;;;;;;114.40;103.70;;;13.20;99.90;;;;;;5001328;28;20056;-81
2022/01/02 06:58:39;;;;;;;113.75;103.07;;;13.20;99.90;;;;;;5001674;28;20093;-81
2022/01/02 07:01:07;;;;;;;113.82;103.13;;;13.20;99.90;;;;;;4993123;28;20081;-81
2022/01/02 07:03:35;;;;;;;114.68;104.05;;;13.20;99.90;;;;;;4981832;28;20061;-81
2022/01/02 07:06:02;;;;;;;111.40;101.25;;;13.20;99.90;;;;;;4978454;28;20047;-81
2022/01/02 07:08:29;;;;;;;112.10;101.50;;;13.20;99.90;;;;;;4989638;28;20050;-81
2022/01/02 07:11:00;;;;;;;113.85;102.88;;;13.20;99.90;;;;;;5001562;28;20061;-81
2022/01/02 07:13:28;;;;;;;113.90;103.07;;;13.20;99.90;;;;;;5017787;28;20097;-81
2022/01/02 07:15:55;;;;;;;112.90;102.30;;;13.10;99.90;;;;;;5017961;28;20529;-81
2022/01/02 07:18:22;;;;;;;112.97;102.60;;;13.10;99.90;;;;;;5017748;28;20054;-81
2022/01/02 07:20:49;;;;;;;111.55;101.22;;;13.10;99.90;;;;;;5017760;28;20060;-81
2022/01/02 07:23:16;;;;;;;113.28;102.82;;;13.20;99.90;;;;;;5001220;28;20058;-81
2022/01/02 07:25:43;;;;;;;112.78;102.32;;;13.10;99.90;;;;;;5007181;28;20058;-81
2022/01/02 07:28:10;;;;;;;113.70;102.95;;;13.20;99.90;;;;;;4998054;28;20484;-81
2022/01/02 07:30:39;;;;;;;113.18;102.78;;;13.10;99.90;;;;;;4997009;28;20085;-81
2022/01/02 07:33:06;;;;;;;113.55;102.75;;;13.10;99.90;;;;;;4997054;28;20057;-80
2022/01/02 07:35:33;;;;;;;115.03;104.63;;;13.10;99.90;;;;;;4981412;28;20134;-80
2022/01/02 07:38:00;;;;;;;114.78;104.38;;;13.10;99.90;;;;;;4996650;28;20568;-81
2022/01/02 07:40:27;;;;;;;112.10;101.40;;;13.00;99.90;;;;;;4997779;28;20058;-80
2022/01/02 07:42:54;;;;;;;114.47;104.07;;;13.00;99.90;;;;;;4997609;28;20053;-81
2022/01/02 07:45:25;;;;;;;112.35;101.75;;;13.00;99.90;;;;;;4996481;28;20051;-81
2022/01/02 07:47:54;;;;;;;112.15;101.80;;;13.10;99.70;;;;;;4995372;28;20137;-82
2022/01/02 07:50:22;;;;;;;112.82;102.53;;;13.00;99.70;;;;;;4995824;28;20578;-83
2022/01/02 07:52:52;;;;;;;113.63;103.05;;;13.00;99.70;;;;;;4994776;28;20061;-81
2022/01/02 07:55:19;;;;;;;113.80;103.50;;;13.10;99.60;;;;;;4996250;28;20098;-81
2022/01/02 07:57:46;;;;;;;114.93;104.07;;;13.10;99.50;;;;;;4979364;28;20046;-81
2022/01/02 08:00:15;;;;;;;113.72;103.13;;;13.10;99.50;;;;;;4996104;28;20069;-82
2022/01/02 08:02:42;;;;;;;114.72;104.15;;;13.10;99.60;;;;;;4976276;28;20066;-82
2022/01/02 08:05:11;;;;;;;114.53;103.82;;;13.10;99.70;;;;;;4979064;28;20134;-82
2022/01/02 08:07:39;;;;;;;113.30;102.88;;;13.10;99.60;;;;;;4995814;28;20075;-81
2022/01/02 08:10:06;;;;;;;117.25;106.32;;;13.00;99.60;;;;;;4995943;28;20157;-81
2022/01/02 08:12:34;;;;;;;114.75;104.15;;;13.00;99.70;;;;;;5014404;28;20963;-82
2022/01/02 08:15:01;;;;;;;113.97;103.50;;;13.00;99.70;;;;;;4991302;28;20058;-81
2022/01/02 08:17:28;;;;;;;114.10;103.60;;;13.00;99.80;;;;;;4990880;28;20069;-81
2022/01/02 08:19:55;;;;;;;114.65;104.07;;;12.90;99.80;;;;;;4976030;28;20566;-81
2022/01/02 08:22:24;;;;;;;113.93;103.43;;;12.90;99.90;;;;;;4959307;28;20054;-81
2022/01/02 08:24:51;;;;;;;114.30;103.97;;;12.90;99.80;;;;;;4975583;28;20057;-80
2022/01/02 08:27:18;;;;;;;113.30;102.97;;;12.90;99.80;;;;;;4975235;28;20080;-84
2022/01/02 08:29:45;;;;;;;116.47;106.18;;;12.80;99.80;;;;;;4993675;28;20059;-84
2022/01/02 08:32:12;;;;;;;113.57;103.10;;;12.90;99.80;;;;;;4994866;28;20814;-84
2022/01/02 08:34:39;;;;;;;113.15;102.70;;;12.90;99.80;;;;;;4995625;28;20064;-84
2022/01/02 08:37:06;;;;;;;113.97;103.35;;;12.90;99.80;;;;;;4893524;28;20050;-82
2022/01/02 08:39:35;;;;;;;112.80;102.38;;;12.90;99.80;;;;;;4979419;28;20130;-83
2022/01/02 08:42:02;;;;;;;118.63;107.63;;;12.80;99.80;;;;;;4979692;28;20108;-83
2022/01/02 08:44:29;;;;;;;114.18;103.68;;;12.80;99.90;;;;;;4992917;28;20054;-83
2022/01/02 08:46:56;;;;;;;117.90;107.30;;;12.80;99.90;;;;;;4995006;28;20058;-82
2022/01/02 08:49:24;;;;;;;115.82;105.22;;;12.80;99.90;;;;;;4979029;28;20057;-83
2022/01/02 08:51:51;;;;;;;116.25;105.55;;;12.80;99.90;;;;;;4996702;28;20054;-83
2022/01/02 08:54:18;;;;;;;114.93;104.10;;;12.80;99.90;;;;;;5003193;28;20053;-82
2022/01/02 08:56:47;;;;;;;115.93;105.45;;;12.80;99.90;;;;;;4994067;28;20532;-83
2022/01/02 08:59:14;;;;;;;113.25;102.90;;;12.80;99.90;;;;;;4978461;28;20054;-82
2022/01/02 09:01:41;;;;;;;116.40;105.55;;;12.70;99.90;;;;;;4995038;28;20051;-82
2022/01/02 09:04:08;;;;;;;113.47;103.07;;;12.70;99.90;;;;;;4978619;28;20828;-83
2022/01/02 09:06:35;;;;;;;113.63;103.03;;;12.70;99.90;;;;;;4979025;28;20604;-83
2022/01/02 09:09:03;;;;;;;114.22;103.38;;;12.70;99.90;;;;;;4975366;28;20047;-84
2022/01/02 09:11:30;;;;;;;114.28;103.47;;;12.60;99.90;;;;;;4975647;28;20114;-84
2022/01/02 09:13:59;;;;;;;114.00;103.53;;;12.70;99.90;;;;;;4975964;28;20057;-82
2022/01/02 09:16:26;;;;;;;116.20;105.43;;;12.70;99.90;;;;;;4959819;28;20086;-85
2022/01/02 09:18:53;;;;;;;114.35;103.57;;;12.70;99.90;;;;;;4959360;28;20059;-84
2022/01/02 09:21:20;;;;;;;113.95;103.30;;;12.70;99.90;;;;;;4991867;28;20090;-84
2022/01/02 09:23:47;;;;;;;113.82;103.53;;;12.70;99.90;;;;;;4991538;28;20046;-83
2022/01/02 09:26:14;;;;;;;114.15;103.63;;;12.70;99.90;;;;;;4975037;28;20673;-82
2022/01/02 09:28:41;;;;;;;115.35;104.70;;;12.70;99.90;;;;;;4992893;28;20134;-83
2022/01/02 09:31:10;;;;;;;113.90;103.38;;;12.80;99.90;;;;;;4975307;28;20497;-84
2022/01/02 09:33:37;;;;;;;113.72;103.15;;;12.80;99.90;;;;;;4975301;28;20055;-82
2022/01/02 09:36:04;;;;;;;115.13;104.72;;;12.80;99.90;;;;;;4959350;28;20065;-84
2022/01/02 09:38:31;;;;;;;113.72;103.28;;;12.80;99.90;;;;;;4959137;28;20612;-82
2022/01/02 09:41:00;;;;;;;114.45;103.85;;;12.90;99.90;;;;;;4975316;28;20137;-85
2022/01/02 09:43:27;;;;;;;115.00;104.22;;;12.90;99.90;;;;;;4972039;28;20496;-82
2022/01/02 09:45:55;;;;;;;115.75;105.10;;;12.90;99.90;;;;;;5005901;28;20085;-86
2022/01/02 09:48:24;;;;;;;113.57;103.18;;;12.90;99.90;;;;;;4974958;28;20102;-83
2022/01/02 09:50:51;;;;;;;114.88;103.95;;;12.90;99.80;;;;;;4958789;28;20507;-85
2022/01/02 09:53:19;;;;;;;114.15;103.72;;;13.00;99.70;;;;;;4959090;28;20593;-84
2022/01/02 09:55:46;;;;;;;116.38;105.72;;;12.90;99.80;;;;;;4972851;28;20129;-83
2022/01/02 09:58:14;;;;;;;113.30;102.75;;;13.00;99.70;;;;;;4978081;28;20058;-86
2022/01/02 10:00:45;;;;;;;113.10;102.70;;;13.00;99.60;;;;;;4978498;28;20066;-83
2022/01/02 10:03:13;;;;;;;113.75;103.35;;;13.10;99.50;;;;;;4974592;28;20050;-82
2022/01/02 10:05:53;;;;;;;114.05;103.45;;;13.10;99.40;;;;;;4989245;28;20051;-82
2022/01/02 10:08:22;;;;;;;113.45;103.32;;;13.00;99.40;;;;;;4959941;28;20055;-84
2022/01/02 10:10:58;;;;;;;113.90;103.28;;;13.00;99.50;;;;;;4978188;28;20509;-83
2022/01/02 10:13:38;;;;;;;114.72;104.30;;;13.00;99.40;;;;;;4983631;28;20556;-82
2022/01/02 10:16:06;;;;;;;118.20;107.50;;;13.00;99.60;;;;;;4998277;28;20081;-83
2022/01/02 10:18:33;;;;;;;113.82;103.55;;;13.00;99.60;;;;;;5017134;28;20054;-82
2022/01/02 10:21:01;;;;;;;115.63;105.03;;;12.90;99.60;;;;;;5000737;28;20144;-83
2022/01/02 10:23:29;;;;;;;112.32;102.03;;;13.00;99.60;;;;;;5000627;28;20046;-82
2022/01/02 10:25:59;;;;;;;114.07;103.68;;;13.00;99.50;;;;;;5006398;28;20060;-84
2022/01/02 10:28:33;;;;;;;114.07;103.65;;;13.00;99.50;;;;;;5007704;28;20058;-82
2022/01/02 10:31:03;;;;;;;114.07;103.88;;;13.00;99.50;;;;;;4961633;28;20054;-82
2022/01/02 10:33:46;;;;;;;113.80;103.55;;;13.00;99.50;;;;;;5010746;28;20050;-83
2022/01/02 10:36:15;;;;;;;114.85;103.78;;;13.00;99.40;;;;;;5010088;28;20059;-82
2022/01/02 10:39:06;;;;;;;114.85;104.25;;;13.00;99.50;;;;;;4996389;28;20050;-83
2022/01/02 10:41:35;;;;;;;114.65;104.03;;;13.10;99.40;;;;;;4980940;28;20128;-82
2022/01/02 10:44:19;;;;;;;112.32;102.28;;;13.00;99.40;;;;;;4996096;28;20050;-81
2022/01/02 10:47:11;;;;;;;112.72;102.43;;;13.10;99.30;;;;;;4996839;28;20406;-81
2022/01/02 10:49:58;;;;;;;112.25;101.70;;;13.10;99.30;;;;;;4997058;28;20145;-82
2022/01/02 10:52:29;;;;;;;114.15;103.60;;;13.10;99.20;;;;;;4980712;28;20141;-82
2022/01/02 10:54:57;;;;;;;114.57;104.03;;;13.10;99.00;;;;;;4997624;28;20047;-83
2022/01/02 10:57:24;;;;;;;115.07;104.28;;;13.10;99.00;;;;;;4998431;28;20633;-81
2022/01/02 10:59:56;;;;;;;114.80;104.32;;;13.10;99.00;;;;;;4981644;28;20072;-86
2022/01/02 11:02:25;;;;;;;115.78;105.38;;;13.10;99.00;;;;;;4982141;28;20097;-83
2022/01/02 11:04:57;;;;;;;112.68;102.47;;;13.10;98.90;;;;;;4998511;28;20047;-84
2022/01/02 11:07:25;;;;;;;116.05;105.43;;;13.10;98.80;;;;;;4981086;28;20054;-82
2022/01/02 11:09:55;;;;;;;113.88;103.22;;;13.10;98.90;;;;;;4998471;28;20054;-85
2022/01/02 11:12:24;;;;;;;112.22;101.93;;;13.10;98.80;;;;;;4984713;28;20109;-84
2022/01/02 11:14:52;;;;;;;118.22;107.43;;;13.10;98.90;;;;;;4998371;28;20074;-82
2022/01/02 11:17:19;;;;;;;113.95;103.45;;;13.00;98.90;;;;;;4981581;28;20054;-82
2022/01/02 11:19:46;;;;;;;115.70;105.20;;;13.00;98.80;;;;;;4990333;28;20058;-82
2022/01/02 11:22:21;;;;;;;114.10;103.65;;;13.00;98.60;;;;;;4998572;28;20148;-83
2022/01/02 11:24:55;;;;;;;115.85;105.15;;;13.00;98.50;;;;;;4998913;28;20540;-81
2022/01/02 11:27:35;;;;;;;114.20;103.82;;;13.00;98.40;;;;;;5033389;28;20081;-82
2022/01/02 11:30:34;;;;;;;114.43;103.82;;;13.00;98.60;;;;;;4981389;28;20050;-82
2022/01/02 11:33:02;;;;;;;115.72;104.75;;;13.00;98.50;;;;;;5015103;28;20113;-82
2022/01/02 11:35:31;;;;;;;115.68;104.72;;;13.00;98.40;;;;;;4981515;28;20125;-81
2022/01/02 11:38:02;;;;;;;114.95;104.05;;;13.00;98.50;;;;;;4997484;28;20055;-82
2022/01/02 11:40:52;;;;;;;114.50;103.57;;;13.00;98.50;;;;;;4980858;28;20137;-81
2022/01/02 11:43:52;;;;;;;114.90;104.30;;;13.00;98.50;;;;;;4997563;28;20099;-81
2022/01/02 11:46:23;;;;;;;117.68;106.93;;;13.00;98.50;;;;;;4997311;28;20554;-82
2022/01/02 11:49:13;;;;;;;113.30;102.93;;;12.90;98.60;;;;;;4997239;28;20514;-81
2022/01/02 11:52:07;;;;;;;115.55;104.72;;;12.90;98.60;;;;;;5000626;28;20108;-82
2022/01/02 11:54:53;;;;;;;114.07;103.35;;;12.90;98.60;;;;;;5021732;28;20054;-82
2022/01/02 11:57:44;;;;;;;113.85;103.22;;;12.90;98.60;;;;;;4997453;28;20542;-82
2022/01/02 12:00:28;;;;;;;115.00;104.20;;;12.90;98.50;;;;;;4980015;28;20096;-81
2022/01/02 12:02:55;;;;;;;113.03;102.65;;;12.90;98.60;;;;;;4980196;28;20077;-84
2022/01/02 12:05:22;;;;;;;110.97;100.15;;;12.90;98.50;;;;;;4997681;28;20145;-86
2022/01/02 12:07:57;;;;;;;112.80;102.40;;;12.90;98.50;;;;;;4996787;28;20046;-83
2022/01/02 12:10:28;;;;;;;112.28;101.55;;;12.90;98.50;;;;;;4980659;28;20137;-84
2022/01/02 12:13:20;;;;;;;110.55;100.35;;;12.90;98.50;;;;;;4997261;28;20058;-81
2022/01/02 12:16:08;;;;;;;113.10;102.57;;;13.00;98.30;;;;;;4997241;28;20058;-83
2022/01/02 12:18:54;;;;;;;112.57;101.72;;;12.90;98.40;;;;;;4980752;28;20043;-82
2022/01/02 12:21:21;;;;;;;113.50;102.25;;;12.90;98.60;;;;;;5002049;28;20085;-84
2022/01/02 12:23:54;;;;;;;111.40;100.85;;;12.90;98.20;;;;;;5000440;28;20136;-82